Time;durP1;ratioP1;P1;durP2;ratioP2;P2;SDS_P1;SDS_P2;PMS_P1;PMS_P2;Temp;Humidity;BMP_temperature;BMP_pressure;BME280_temperature;BME280_humidity;BME280_pressure;Samples;Min_cycle;Max_cycle;Signal;HPM_P1;HPM_P2
2022/07/25 00:01:21;;;;;;;10.47;9.67;;;;;;;21.57;100.00;96268.22;5051274;27;102044;-72
2022/07/25 00:03:48;;;;;;;10.70;9.70;;;;;;;21.17;100.00;96266.81;5049800;27;105460;-73
2022/07/25 00:06:15;;;;;;;11.20;10.20;;;;;;;21.07;100.00;96262.56;5052761;27;105847;-72
2022/07/25 00:08:43;;;;;;;10.83;9.83;;;;;;;20.97;100.00;96253.94;5050085;27;102373;-73
2022/07/25 00:11:10;;;;;;;10.23;9.33;;;;;;;20.97;100.00;96257.47;5048864;27;106166;-73
2022/07/25 00:13:37;;;;;;;10.67;9.67;;;;;;;21.05;100.00;96253.16;5051180;27;101857;-72
2022/07/25 00:16:07;;;;;;;9.77;8.87;;;;;;;21.08;100.00;96247.13;5051038;27;102317;-72
2022/07/25 00:18:34;;;;;;;9.73;8.83;;;;;;;21.14;100.00;96248.56;5050235;27;102783;-70
2022/07/25 00:21:01;;;;;;;10.43;9.53;;;;;;;21.12;100.00;96243.47;5050900;27;101835;-71
2022/07/25 00:23:28;;;;;;;10.17;9.17;;;;;;;21.10;100.00;96242.97;5049473;27;102876;-71
2022/07/25 00:25:57;;;;;;;10.13;9.17;;;;;;;21.04;100.00;96243.47;5049051;27;103972;-71
2022/07/25 00:28:23;;;;;;;11.47;10.47;;;;;;;21.19;100.00;96245.69;5054475;27;101939;-70
2022/07/25 00:30:51;;;;;;;12.80;10.13;;;;;;;20.95;100.00;96248.06;5049373;27;102694;-70
2022/07/25 00:33:19;;;;;;;10.20;9.30;;;;;;;21.25;100.00;96255.22;5049809;27;102167;-71
2022/07/25 00:35:46;;;;;;;10.87;9.87;;;;;;;21.13;100.00;96246.94;5050306;27;102387;-71
2022/07/25 00:38:13;;;;;;;10.53;9.63;;;;;;;21.03;100.00;96250.78;5048312;27;105450;-71
2022/07/25 00:40:40;;;;;;;10.70;9.63;;;;;;;20.90;100.00;96243.63;5050759;27;101861;-71
2022/07/25 00:43:08;;;;;;;9.87;9.03;;;;;;;21.02;100.00;96240.28;5050910;27;102897;-71
2022/07/25 00:45:35;;;;;;;10.37;9.37;;;;;;;21.00;100.00;96242.50;5049999;27;102827;-71
2022/07/25 00:48:02;;;;;;;9.53;8.70;;;;;;;21.05;100.00;96242.34;5050335;27;101928;-72
2022/07/25 00:50:31;;;;;;;9.90;9.00;;;;;;;21.08;100.00;96236.31;5052021;27;103543;-72
2022/07/25 00:52:58;;;;;;;10.60;9.70;;;;;;;20.93;100.00;96236.81;5050390;27;101974;-72
2022/07/25 00:55:25;;;;;;;10.07;9.17;;;;;;;20.93;100.00;96231.41;5049091;27;105106;-72
2022/07/25 00:57:53;;;;;;;10.83;9.93;;;;;;;20.72;100.00;96235.81;5049694;27;102634;-72
2022/07/25 01:00:19;;;;;;;10.40;9.50;;;;;;;21.01;100.00;96235.97;5050506;27;101742;-72
2022/07/25 01:02:47;;;;;;;11.57;10.27;;;;;;;21.02;100.00;96235.66;5050148;27;102364;-73
2022/07/25 01:05:14;;;;;;;10.83;9.93;;;;;;;20.91;100.00;96225.50;5048755;27;102616;-73
2022/07/25 01:07:43;;;;;;;11.80;10.60;;;;;;;20.62;100.00;96234.22;5051830;27;101863;-73
2022/07/25 01:10:10;;;;;;;10.73;9.80;;;;;;;20.14;100.00;96240.81;5055955;27;102229;-72
2022/07/25 01:12:47;;;;;;;11.00;10.00;;;;;;;19.96;100.00;96231.03;5054044;27;101843;-73
2022/07/25 01:15:16;;;;;;;11.13;10.23;;;;;;;19.96;100.00;96234.56;5052714;27;104183;-73
2022/07/25 01:17:43;;;;;;;11.27;10.27;;;;;;;19.86;100.00;96228.63;5050728;27;106104;-72
2022/07/25 01:20:16;;;;;;;10.10;9.20;;;;;;;20.03;100.00;96224.09;5052762;27;101869;-73
2022/07/25 01:22:44;;;;;;;10.97;9.90;;;;;;;20.00;100.00;96223.91;5053916;27;102250;-72
2022/07/25 01:25:12;;;;;;;11.47;10.50;;;;;;;20.04;100.00;96224.84;5053241;27;102791;-73
2022/07/25 01:27:40;;;;;;;10.40;9.50;;;;;;;20.00;100.00;96221.22;5052792;27;101837;-73
2022/07/25 01:30:09;;;;;;;11.20;9.90;;;;;;;19.77;100.00;96223.19;5053474;27;102556;-71
2022/07/25 01:32:37;;;;;;;10.60;9.70;;;;;;;19.89;100.00;96228.00;5055067;27;105772;-73
2022/07/25 01:35:07;;;;;;;11.50;10.27;;;;;;;19.70;100.00;96214.78;5053674;27;101724;-73
2022/07/25 01:37:36;;;;;;;12.17;10.87;;;;;;;19.91;100.00;96220.38;5051257;27;102514;-72
2022/07/25 01:40:05;;;;;;;11.70;10.60;;;;;;;19.80;100.00;96214.50;5052470;27;101830;-72
2022/07/25 01:42:32;;;;;;;12.27;11.20;;;;;;;19.76;100.00;96212.72;5051110;27;105382;-72
2022/07/25 01:45:00;;;;;;;11.37;10.37;;;;;;;19.83;100.00;96204.97;5050412;27;105559;-72
2022/07/25 01:47:26;;;;;;;12.03;10.90;;;;;;;19.61;100.00;96207.75;5052531;27;101768;-71
2022/07/25 01:49:54;;;;;;;10.37;9.47;;;;;;;19.89;100.00;96211.81;5051082;27;105416;-72
2022/07/25 01:52:21;;;;;;;11.40;10.30;;;;;;;19.89;100.00;96201.03;5052775;27;102476;-72
2022/07/25 01:54:50;;;;;;;11.63;10.53;;;;;;;19.82;100.00;96204.16;5054091;27;101948;-72
2022/07/25 01:57:16;;;;;;;11.30;10.37;;;;;;;19.83;100.00;96192.25;5051936;27;102787;-71
2022/07/25 01:59:44;;;;;;;10.27;9.37;;;;;;;19.96;100.00;96193.25;5050758;27;101907;-72
2022/07/25 02:02:11;;;;;;;10.93;9.93;;;;;;;19.97;100.00;96184.84;5051743;27;105291;-72
2022/07/25 02:04:38;;;;;;;11.53;10.43;;;;;;;19.99;100.00;96195.34;5051165;27;105500;-72
2022/07/25 02:07:05;;;;;;;11.23;10.33;;;;;;;19.99;100.00;96195.34;5052361;27;101974;-72
2022/07/25 02:09:32;;;;;;;11.20;10.20;;;;;;;19.79;100.00;96196.69;5050847;27;105465;-72
2022/07/25 02:12:01;;;;;;;10.30;9.40;;;;;;;19.61;100.00;96191.56;5050261;27;105385;-72
2022/07/25 02:14:28;;;;;;;10.93;9.93;;;;;;;19.50;100.00;96192.94;5051567;27;101973;-72
2022/07/25 02:16:55;;;;;;;11.30;10.10;;;;;;;19.38;100.00;96195.41;5054191;27;104965;-72
2022/07/25 02:19:22;;;;;;;11.47;10.37;;;;;;;19.75;100.00;96194.94;5050659;27;101974;-72
2022/07/25 02:21:50;;;;;;;11.80;10.13;;;;;;;19.57;100.00;96185.19;5051911;27;102586;-72
2022/07/25 02:24:17;;;;;;;10.47;9.57;;;;;;;19.73;100.00;96189.06;5050070;27;105823;-72
2022/07/25 02:26:44;;;;;;;11.20;10.20;;;;;;;19.60;100.00;96179.16;5051440;27;101948;-72
2022/07/25 02:29:13;;;;;;;12.03;10.87;;;;;;;19.55;100.00;96179.31;5050269;27;105142;-72
2022/07/25 02:31:41;;;;;;;11.20;10.20;;;;;;;19.30;100.00;96177.31;5051138;27;102606;-72
2022/07/25 02:34:08;;;;;;;13.07;10.90;;;;;;;19.08;100.00;96180.00;5051644;27;101836;-72
2022/07/25 02:36:35;;;;;;;10.43;9.53;;;;;;;19.26;100.00;96184.41;5049447;27;104342;-72
2022/07/25 02:39:03;;;;;;;11.10;10.00;;;;;;;19.16;100.00;96176.56;5055467;27;102721;-72
2022/07/25 02:41:30;;;;;;;10.57;9.67;;;;;;;18.90;100.00;96178.28;5050253;27;106529;-72
2022/07/25 02:43:57;;;;;;;10.93;10.03;;;;;;;19.16;100.00;96173.84;5050502;27;105444;-72
2022/07/25 02:46:26;;;;;;;11.00;10.00;;;;;;;19.35;100.00;96180.66;5051538;27;101762;-72
2022/07/25 02:48:53;;;;;;;11.03;10.03;;;;;;;19.42;100.00;96178.31;5051130;27;102304;-72
2022/07/25 02:51:20;;;;;;;10.97;10.00;;;;;;;19.57;100.00;96174.41;5050882;27;103308;-72
2022/07/25 02:53:48;;;;;;;10.53;9.43;;;;;;;19.53;100.00;96173.44;5049929;27;101973;-72
2022/07/25 02:56:15;;;;;;;11.00;9.90;;;;;;;19.49;100.00;96180.53;5052506;27;103033;-72
2022/07/25 02:58:42;;;;;;;11.10;10.20;;;;;;;19.26;100.00;96176.31;5050176;27;105945;-72
2022/07/25 03:01:10;;;;;;;10.90;9.90;;;;;;;19.25;100.00;96177.44;5054888;27;101891;-71
2022/07/25 03:03:39;;;;;;;10.97;9.97;;;;;;;19.21;100.00;96173.72;5051474;27;101715;-71
2022/07/25 03:06:06;;;;;;;11.23;10.03;;;;;;;19.21;100.00;96177.25;5050109;27;101862;-74
2022/07/25 03:08:34;;;;;;;10.47;9.57;;;;;;;19.34;100.00;96179.06;5050913;27;104197;-72
2022/07/25 03:11:01;;;;;;;11.47;10.50;;;;;;;19.32;100.00;96175.88;5051172;27;102752;-72
2022/07/25 03:13:28;;;;;;;11.53;9.97;;;;;;;19.15;100.00;96169.56;5049707;27;102045;-72
2022/07/25 03:15:55;;;;;;;12.10;11.00;;;;;;;19.17;100.00;96186.22;5051333;27;102908;-72
2022/07/25 03:18:22;;;;;;;10.17;9.30;;;;;;;19.26;100.00;96182.53;5050399;27;102797;-72
2022/07/25 03:20:51;;;;;;;12.17;11.07;;;;;;;19.09;100.00;96176.22;5055595;27;101844;-73
2022/07/25 03:23:18;;;;;;;10.33;9.43;;;;;;;19.28;100.00;96177.59;5048851;27;104385;-71
2022/07/25 03:25:45;;;;;;;11.67;10.60;;;;;;;19.27;100.00;96169.81;5050499;27;102021;-73
2022/07/25 03:28:12;;;;;;;11.60;10.50;;;;;;;19.37;100.00;96177.66;5050746;27;102851;-73
2022/07/25 03:30:39;;;;;;;12.97;11.67;;;;;;;19.41;100.00;96173.22;5049335;27;105013;-73
2022/07/25 03:33:07;;;;;;;11.90;10.80;;;;;;;19.31;100.00;96174.31;5050784;27;101992;-73
2022/07/25 03:35:34;;;;;;;10.80;9.90;;;;;;;19.44;100.00;96176.09;5050749;27;102896;-73
2022/07/25 03:38:02;;;;;;;11.37;10.43;;;;;;;19.37;100.00;96173.06;5051399;27;104154;-73
2022/07/25 03:40:30;;;;;;;11.83;10.80;;;;;;;19.29;100.00;96170.31;5050434;27;101878;-73
2022/07/25 03:42:57;;;;;;;10.57;9.67;;;;;;;19.31;100.00;96162.72;5053539;27;102302;-74
2022/07/25 03:45:25;;;;;;;11.73;10.47;;;;;;;19.33;100.00;96166.69;5051741;27;101750;-73
2022/07/25 03:47:52;;;;;;;12.17;10.97;;;;;;;19.34;100.00;96165.56;5050343;27;102849;-73
2022/07/25 03:50:19;;;;;;;12.87;11.67;;;;;;;19.16;100.00;96157.69;5048663;27;104541;-71
2022/07/25 03:52:47;;;;;;;11.87;10.90;;;;;;;19.17;100.00;96168.16;5050217;27;101930;-71
2022/07/25 03:55:15;;;;;;;11.87;10.87;;;;;;;19.19;100.00;96170.56;5050488;27;102903;-71
2022/07/25 03:57:42;;;;;;;12.40;11.30;;;;;;;18.98;100.00;96170.28;5048290;27;105524;-72
2022/07/25 04:00:11;;;;;;;11.67;10.67;;;;;;;19.19;100.00;96174.03;5048720;27;102081;-71
2022/07/25 04:02:38;;;;;;;12.60;11.40;;;;;;;19.10;100.00;96172.41;5050281;27;102464;-71
2022/07/25 04:05:06;;;;;;;11.30;10.30;;;;;;;19.10;100.00;96172.41;5053339;27;102535;-71
2022/07/25 04:07:37;;;;;;;11.77;10.77;;;;;;;18.97;100.00;96165.19;5048763;27;105311;-72
2022/07/25 04:10:05;;;;;;;10.90;9.90;;;;;;;19.02;100.00;96159.69;5048526;27;103617;-71
2022/07/25 04:12:34;;;;;;;11.00;10.10;;;;;;;19.04;100.00;96158.28;5050137;27;101933;-71
2022/07/25 04:15:04;;;;;;;11.57;10.57;;;;;;;18.99;100.00;96171.06;5049191;27;105309;-70
2022/07/25 04:17:31;;;;;;;11.20;10.20;;;;;;;19.02;100.00;96170.47;5048472;27;105322;-70
2022/07/25 04:19:58;;;;;;;11.73;10.53;;;;;;;19.15;100.00;96166.88;5048959;27;101999;-69
2022/07/25 04:22:25;;;;;;;10.87;10.00;;;;;;;19.19;100.00;96165.16;5048987;27;104726;-71
2022/07/25 04:25:30;;;;;;;11.90;10.80;;;;;;;19.20;100.00;96161.34;5048295;27;105301;-72
2022/07/25 04:27:59;;;;;;;11.40;10.23;;;;;;;19.24;100.00;96162.38;5052333;27;101831;-70
2022/07/25 04:30:26;;;;;;;11.00;10.00;;;;;;;19.43;100.00;96160.22;5049896;27;102743;-70
2022/07/25 04:32:53;;;;;;;11.57;10.63;;;;;;;19.47;100.00;96166.59;5048435;27;102462;-70
2022/07/25 04:35:20;;;;;;;11.70;10.70;;;;;;;19.52;100.00;96152.97;5048588;27;105273;-70
2022/07/25 04:37:47;;;;;;;12.23;11.03;;;;;;;19.55;100.00;96150.44;5047520;27;105131;-70
2022/07/25 04:40:15;;;;;;;11.67;10.67;;;;;;;19.70;100.00;96154.59;5048319;27;101990;-69
2022/07/25 04:42:42;;;;;;;11.90;10.60;;;;;;;19.83;100.00;96153.72;5047134;27;104770;-71
2022/07/25 04:45:12;;;;;;;12.03;10.93;;;;;;;19.95;100.00;96143.88;5047838;27;105308;-71
2022/07/25 04:47:39;;;;;;;11.53;10.43;;;;;;;20.09;100.00;96152.66;5031576;27;101886;-70
2022/07/25 04:50:07;;;;;;;12.03;10.93;;;;;;;20.19;100.00;96148.84;5050914;27;104949;-71
2022/07/25 04:52:35;;;;;;;11.60;10.60;;;;;;;20.30;100.00;96147.44;5047742;27;102032;-69
2022/07/25 04:55:02;;;;;;;12.47;11.47;;;;;;;20.37;100.00;96148.56;5047866;27;104856;-70
2022/07/25 04:57:30;;;;;;;11.97;10.97;;;;;;;20.45;100.00;96146.97;5047461;27;105445;-70
2022/07/25 04:59:58;;;;;;;11.60;10.60;;;;;;;20.58;100.00;96154.09;5048133;27;101899;-71
2022/07/25 05:02:27;;;;;;;13.67;12.50;;;;;;;20.62;100.00;96146.94;5047960;27;105225;-72
2022/07/25 05:04:54;;;;;;;12.07;11.07;;;;;;;20.62;100.00;96144.25;5047276;27;105510;-70
2022/07/25 05:07:22;;;;;;;11.90;10.70;;;;;;;20.78;100.00;96145.34;5047801;27;101936;-69
2022/07/25 05:09:49;;;;;;;11.13;10.13;;;;;;;20.98;100.00;96140.09;5047903;27;106088;-68
2022/07/25 05:12:16;;;;;;;12.03;10.93;;;;;;;21.10;100.00;96140.22;5050568;27;102027;-66
2022/07/25 05:14:44;;;;;;;12.77;11.60;;;;;;;21.36;100.00;96148.25;5047723;27;105546;-66
2022/07/25 05:17:11;;;;;;;11.90;10.80;;;;;;;21.33;100.00;96143.47;5047296;27;105991;-66
2022/07/25 05:19:39;;;;;;;13.37;12.07;;;;;;;21.26;100.00;96152.09;5047923;27;102048;-66
2022/07/25 05:22:06;;;;;;;14.00;12.67;;;;;;;21.28;100.00;96155.28;5030738;27;105276;-66
2022/07/25 05:24:33;;;;;;;12.40;11.30;;;;;;;21.51;100.00;96156.63;5047038;27;105068;-66
2022/07/25 05:27:01;;;;;;;11.53;10.53;;;;;;;21.82;100.00;96150.94;5047751;27;101899;-67
2022/07/25 05:29:28;;;;;;;12.20;11.20;;;;;;;21.87;100.00;96150.75;5047709;27;103597;-67
2022/07/25 05:31:55;;;;;;;13.10;11.90;;;;;;;21.88;100.00;96150.44;5051903;27;102598;-66
2022/07/25 05:34:22;;;;;;;11.90;10.90;;;;;;;22.04;100.00;96147.94;5048776;27;102593;-67
2022/07/25 05:36:51;;;;;;;12.40;11.20;;;;;;;22.35;100.00;96142.94;5048512;27;102876;-66
2022/07/25 05:39:18;;;;;;;13.47;11.67;;;;;;;22.45;100.00;96137.16;5048506;27;101894;-68
2022/07/25 05:41:45;;;;;;;12.77;11.57;;;;;;;22.50;100.00;96139.69;5047769;27;105000;-65
2022/07/25 05:44:12;;;;;;;14.23;12.90;;;;;;;22.69;100.00;96143.50;5046711;27;105545;-65
2022/07/25 05:46:40;;;;;;;13.50;12.23;;;;;;;22.81;100.00;96135.41;5048717;27;101795;-65
2022/07/25 05:49:07;;;;;;;13.63;12.23;;;;;;;22.72;100.00;96133.91;5047379;27;105306;-65
2022/07/25 05:51:34;;;;;;;13.00;11.80;;;;;;;22.85;100.00;96140.94;5047998;27;102897;-66
2022/07/25 05:54:03;;;;;;;13.40;12.13;;;;;;;22.84;100.00;96128.53;5054261;27;101845;-66
2022/07/25 05:56:30;;;;;;;12.67;11.57;;;;;;;22.97;100.00;96138.25;5050318;27;106015;-66
2022/07/25 05:58:57;;;;;;;12.80;11.70;;;;;;;23.12;100.00;96138.44;5050771;27;101933;-66
2022/07/25 06:01:24;;;;;;;12.83;11.73;;;;;;;23.20;100.00;96131.34;5050861;27;105385;-66
2022/07/25 06:03:52;;;;;;;12.23;11.10;;;;;;;23.35;100.00;96138.84;5050136;27;106743;-66
2022/07/25 06:06:19;;;;;;;11.97;10.83;;;;;;;23.45;100.00;96133.78;5050972;27;101841;-66
2022/07/25 06:08:46;;;;;;;13.60;12.40;;;;;;;23.50;100.00;96124.63;5052207;27;102444;-66
2022/07/25 06:11:15;;;;;;;12.37;11.27;;;;;;;23.42;100.00;96133.63;5051436;27;102556;-66
2022/07/25 06:13:42;;;;;;;13.27;11.97;;;;;;;23.50;100.00;96136.28;5050706;27;102058;-66
2022/07/25 06:16:09;;;;;;;12.17;11.17;;;;;;;23.66;100.00;96133.69;5055319;27;102328;-66
2022/07/25 06:18:36;;;;;;;13.13;11.77;;;;;;;23.72;100.00;96132.31;5052005;27;101921;-66
2022/07/25 06:21:05;;;;;;;12.80;11.53;;;;;;;23.59;100.00;96133.47;5050508;27;105692;-66
2022/07/25 06:23:32;;;;;;;11.93;10.93;;;;;;;23.82;100.00;96115.56;5049621;27;106063;-66
2022/07/25 06:25:59;;;;;;;12.23;11.00;;;;;;;23.82;100.00;96118.28;5052091;27;101715;-66
2022/07/25 06:28:28;;;;;;;12.43;11.27;;;;;;;24.03;100.00;96124.41;5051945;27;102872;-66
2022/07/25 06:30:55;;;;;;;12.60;11.57;;;;;;;24.19;100.00;96131.50;5049493;27;104318;-66
2022/07/25 06:33:23;;;;;;;13.00;11.90;;;;;;;24.27;100.00;96117.00;5050488;27;101958;-66
2022/07/25 06:35:49;;;;;;;13.20;11.80;;;;;;;24.37;100.00;96121.16;5050240;27;105375;-66
2022/07/25 06:38:16;;;;;;;13.03;11.93;;;;;;;24.25;100.00;96110.34;5054359;27;102649;-66
2022/07/25 06:40:44;;;;;;;12.30;11.30;;;;;;;24.20;100.00;96116.00;5050277;27;105189;-66
2022/07/25 06:43:11;;;;;;;12.87;11.77;;;;;;;24.34;100.00;96116.41;5050930;27;102587;-66
2022/07/25 06:45:41;;;;;;;12.27;11.27;;;;;;;24.57;100.00;96118.25;5051559;27;101843;-65
2022/07/25 06:48:08;;;;;;;11.87;10.93;;;;;;;24.83;100.00;96107.75;5049880;27;105683;-66
2022/07/25 06:50:36;;;;;;;11.20;10.20;;;;;;;25.03;100.00;96106.75;5051019;27;103104;-66
2022/07/25 06:53:03;;;;;;;11.60;10.70;;;;;;;25.22;100.00;96108.81;5051072;27;101816;-66
2022/07/25 06:55:30;;;;;;;10.80;9.80;;;;;;;25.42;100.00;96102.34;5049710;27;106506;-66
2022/07/25 06:57:58;;;;;;;11.00;10.00;;;;;;;25.36;100.00;96104.53;5050153;27;105510;-66
2022/07/25 07:00:25;;;;;;;11.23;10.27;;;;;;;25.39;100.00;96103.81;5051425;27;102398;-65
2022/07/25 07:02:56;;;;;;;11.80;10.80;;;;;;;25.63;100.00;96109.13;5050639;27;105246;-66
2022/07/25 07:05:23;;;;;;;10.13;9.33;;;;;;;25.85;100.00;96108.47;5050097;27;101740;-66
2022/07/25 07:07:51;;;;;;;11.00;10.00;;;;;;;25.95;100.00;96098.97;5052229;27;102363;-66
2022/07/25 07:10:18;;;;;;;10.87;9.87;;;;;;;26.18;100.00;96105.34;5049312;27;105338;-66
2022/07/25 07:12:45;;;;;;;10.67;9.77;;;;;;;26.23;100.00;96094.16;5052111;27;101902;-66
2022/07/25 07:15:13;;;;;;;12.53;11.43;;;;;;;26.31;100.00;96104.09;5051855;27;102249;-66
2022/07/25 07:17:40;;;;;;;11.70;10.60;;;;;;;26.25;100.00;96100.03;5050276;27;104283;-66
2022/07/25 07:20:10;;;;;;;10.50;9.60;;;;;;;26.47;100.00;96091.16;5054181;27;102017;-66
2022/07/25 07:22:48;;;;;;;11.20;10.20;;;;;;;26.42;100.00;96083.28;5050453;27;105237;-66
2022/07/25 07:25:15;;;;;;;11.77;10.77;;;;;;;26.51;100.00;96090.09;5051041;27;101722;-66
2022/07/25 07:27:43;;;;;;;11.13;10.13;;;;;;;26.68;100.00;96086.97;5049217;27;105837;-66
2022/07/25 07:30:13;;;;;;;11.23;10.23;;;;;;;26.63;100.00;96091.91;5048890;27;105644;-66
2022/07/25 07:32:40;;;;;;;10.83;9.83;;;;;;;26.68;100.00;96086.97;5050572;27;101865;-66
2022/07/25 07:35:11;;;;;;;11.33;10.43;;;;;;;26.93;100.00;96087.44;5051797;27;102318;-66
2022/07/25 07:37:39;;;;;;;11.10;9.97;;;;;;;26.86;100.00;96081.84;5049954;27;103129;-67
2022/07/25 07:40:08;;;;;;;10.97;10.00;;;;;;;26.80;100.00;96080.56;5050643;27;101786;-67
2022/07/25 07:42:39;;;;;;;10.37;9.47;;;;;;;27.14;100.00;96074.19;5053255;27;102635;-68
2022/07/25 07:45:17;;;;;;;10.47;9.57;;;;;;;27.49;100.00;96070.16;5050077;27;101792;-68
2022/07/25 07:47:46;;;;;;;10.40;9.40;;;;;;;27.72;100.00;96079.09;5050160;27;105281;-68
2022/07/25 07:50:17;;;;;;;11.77;10.00;;;;;;;27.63;100.00;96075.81;5050769;27;103169;-68
2022/07/25 07:52:45;;;;;;;10.70;9.73;;;;;;;27.37;100.00;96077.75;5048562;27;101948;-68
2022/07/25 07:57:58;;;;;;;10.47;9.67;;;;;;;27.24;100.00;96073.63;5049321;27;105862;-67
2022/07/25 08:00:26;;;;;;;10.37;9.57;;;;;;;27.37;100.00;96064.09;5049702;27;102000;-67
2022/07/25 08:02:55;;;;;;;11.40;10.30;;;;;;;27.42;100.00;96067.31;5051096;27;102306;-68
2022/07/25 08:05:25;;;;;;;10.90;10.00;;;;;;;27.72;100.00;96065.44;5051934;27;105550;-67
2022/07/25 08:07:53;;;;;;;10.43;9.50;;;;;;;28.09;100.00;96060.16;5050150;27;104435;-69
2022/07/25 08:10:22;;;;;;;10.17;9.37;;;;;;;28.33;100.00;96056.97;5048881;27;105651;-68
2022/07/25 08:12:49;;;;;;;10.50;9.60;;;;;;;28.27;100.00;96061.97;5051121;27;101856;-69
2022/07/25 08:15:17;;;;;;;11.20;10.20;;;;;;;28.11;100.00;96066.81;5051300;27;102335;-68
2022/07/25 08:17:45;;;;;;;10.83;9.83;;;;;;;27.97;100.00;96054.91;5048004;27;105480;-68
2022/07/25 08:20:13;;;;;;;10.23;9.33;;;;;;;28.34;100.00;96062.03;5049515;27;102037;-67
2022/07/25 08:22:43;;;;;;;11.03;10.13;;;;;;;28.68;100.00;96065.63;5050990;27;102316;-67
2022/07/25 08:25:13;;;;;;;11.43;9.77;;;;;;;28.89;100.00;96061.16;5048174;27;105388;-65
2022/07/25 08:27:41;;;;;;;10.67;9.57;;;;;;;28.76;100.00;96053.63;5053002;27;102076;-66
2022/07/25 08:30:09;;;;;;;10.03;9.13;;;;;;;29.12;100.00;96052.84;5050132;27;102641;-66
2022/07/25 08:32:47;;;;;;;11.07;10.03;;;;;;;28.74;100.00;96059.47;5050778;27;102368;-67
2022/07/25 08:35:15;;;;;;;10.73;9.60;;;;;;;28.43;100.00;96053.59;5049995;27;102370;-68
2022/07/25 08:37:44;;;;;;;10.70;9.50;;;;;;;28.41;100.00;96055.91;5048297;27;105919;-68
2022/07/25 08:40:12;;;;;;;12.40;9.73;;;;;;;29.25;100.00;96054.16;5050918;27;101713;-66
2022/07/25 08:42:40;;;;;;;10.20;9.25;;;;;;;29.60;100.00;96057.22;5050771;27;102403;-66
2022/07/25 08:45:09;;;;;;;10.02;9.23;;;;;;;29.48;100.00;96046.53;5049775;27;102573;-67
2022/07/25 08:47:37;;;;;;;12.05;10.13;;;;;;;29.30;100.00;96053.78;5050526;27;101907;-67
2022/07/25 08:50:05;;;;;;;10.80;9.48;;;;;;;28.97;100.00;96057.38;5052315;27;103181;-66
2022/07/25 08:52:34;;;;;;;10.13;9.23;;;;;;;29.56;100.00;96054.44;5049037;27;102015;-64
2022/07/25 08:55:03;;;;;;;10.43;9.52;;;;;;;30.04;100.00;96046.94;5048957;27;103745;-67
2022/07/25 08:57:31;;;;;;;10.07;9.18;;;;;;;30.25;100.00;96044.34;5050011;27;102854;-67
2022/07/25 08:59:59;;;;;;;10.23;9.10;;;;;;;30.41;96.32;96042.84;5048858;27;102079;-68
2022/07/25 09:02:27;;;;;;;9.70;8.90;;;;;;;30.52;91.22;96042.91;5050398;27;102316;-67
2022/07/25 09:04:55;;;;;;;9.60;8.80;;;;;;;30.65;79.35;96041.38;5048385;27;105909;-67
2022/07/25 09:07:36;;;;;;;9.07;8.10;;;;;;;30.63;71.16;96038.25;5050667;27;101682;-67
2022/07/25 09:10:17;;;;;;;9.80;8.98;;;;;;;29.79;88.16;96037.75;5048925;27;105321;-67
2022/07/25 09:12:53;;;;;;;9.27;8.43;;;;;;;30.47;85.75;96038.59;5053324;27;102766;-68
2022/07/25 09:15:25;;;;;;;9.57;8.68;;;;;;;31.10;83.71;96032.50;5048687;27;104796;-67
2022/07/25 09:17:53;;;;;;;9.43;8.55;;;;;;;31.24;79.80;96032.56;5048276;27;105967;-68
2022/07/25 09:20:21;;;;;;;9.40;8.50;;;;;;;31.78;77.61;96032.19;5048812;27;102417;-67
2022/07/25 09:22:49;;;;;;;9.20;8.48;;;;;;;32.04;76.26;96029.78;5050267;27;102487;-67
2022/07/25 09:25:26;;;;;;;9.43;8.52;;;;;;;32.19;64.49;96022.28;5049554;27;101799;-67
2022/07/25 09:27:53;;;;;;;8.82;8.13;;;;;;;32.38;60.75;96027.38;5050679;27;101700;-67
2022/07/25 09:30:20;;;;;;;8.55;7.95;;;;;;;31.82;61.83;96022.75;5052024;27;105407;-67
2022/07/25 09:32:47;;;;;;;8.63;7.93;;;;;;;32.23;61.43;96017.56;5056527;27;102542;-67
2022/07/25 09:35:15;;;;;;;8.80;8.10;;;;;;;32.56;58.88;96022.56;5053645;27;102987;-68
2022/07/25 09:37:42;;;;;;;8.63;7.82;;;;;;;33.03;60.38;96020.00;5052455;27;102634;-68
2022/07/25 09:40:14;;;;;;;8.70;8.10;;;;;;;32.76;54.23;96012.66;5052234;27;101813;-68
2022/07/25 09:42:45;;;;;;;9.75;8.10;;;;;;;33.02;60.96;96015.66;5052046;27;105509;-67
2022/07/25 09:45:14;;;;;;;8.35;7.70;;;;;;;33.45;56.15;96016.19;5053031;27;103095;-67
2022/07/25 09:47:53;;;;;;;8.93;7.90;;;;;;;33.61;47.92;96016.47;5052159;27;101867;-68
2022/07/25 09:50:22;;;;;;;8.15;7.45;;;;;;;33.79;49.07;96022.63;5053333;27;102302;-67
2022/07/25 09:52:52;;;;;;;7.97;7.07;;;;;;;33.90;50.27;96012.28;5052127;27;102550;-66
2022/07/25 09:55:20;;;;;;;8.23;7.53;;;;;;;34.16;51.32;96015.13;5056606;27;101870;-65
2022/07/25 09:57:51;;;;;;;8.30;7.65;;;;;;;34.30;52.07;96003.19;5052500;27;103144;-66
2022/07/25 10:00:22;;;;;;;8.32;7.60;;;;;;;34.24;44.25;96004.81;5051958;27;101772;-66
2022/07/25 10:02:56;;;;;;;7.88;7.18;;;;;;;33.85;46.65;96007.19;5051793;27;105267;-66
2022/07/25 10:05:35;;;;;;;7.43;6.93;;;;;;;34.13;51.40;95999.41;5051266;27;105463;-66
2022/07/25 10:08:07;;;;;;;8.13;7.40;;;;;;;34.11;47.19;95998.25;5053176;27;101793;-67
2022/07/25 10:10:38;;;;;;;8.02;7.30;;;;;;;34.14;48.17;95995.44;5051775;27;104152;-67
2022/07/25 10:13:09;;;;;;;7.47;6.88;;;;;;;34.45;46.55;95996.31;5052307;27;104139;-67
2022/07/25 10:15:42;;;;;;;7.63;7.03;;;;;;;34.27;47.87;95999.25;5053257;27;101917;-66
2022/07/25 10:18:10;;;;;;;8.00;7.18;;;;;;;34.28;49.80;95991.78;5055705;27;102956;-65
2022/07/25 10:20:37;;;;;;;7.78;7.18;;;;;;;34.32;44.10;95998.06;5050975;27;101808;-66
2022/07/25 10:23:17;;;;;;;7.93;7.15;;;;;;;34.85;44.35;95990.66;5052733;27;102273;-65
2022/07/25 10:25:44;;;;;;;7.72;7.15;;;;;;;34.13;43.82;95982.06;5051735;27;102600;-66
2022/07/25 10:28:18;;;;;;;7.35;6.82;;;;;;;34.26;42.87;95986.63;5051899;27;102130;-66
2022/07/25 10:30:46;;;;;;;6.97;6.40;;;;;;;34.90;44.15;95981.13;5052133;27;102894;-67
2022/07/25 10:33:15;;;;;;;7.43;6.85;;;;;;;34.05;41.55;95981.34;5050518;27;105626;-67
2022/07/25 10:35:42;;;;;;;7.95;7.25;;;;;;;33.82;44.98;95983.97;5051324;27;101826;-65
2022/07/25 10:38:09;;;;;;;7.20;6.60;;;;;;;34.51;42.50;95978.06;5052314;27;102349;-65
2022/07/25 10:40:39;;;;;;;7.68;6.95;;;;;;;34.53;42.87;95975.66;5053840;27;102783;-67
2022/07/25 10:43:13;;;;;;;7.18;6.47;;;;;;;34.64;43.30;95979.88;5052436;27;102292;-66
2022/07/25 10:45:49;;;;;;;7.43;6.70;;;;;;;34.58;45.25;95967.72;5051964;27;102625;-66
2022/07/25 10:48:21;;;;;;;7.15;6.50;;;;;;;35.31;43.86;95956.84;5052656;27;101717;-66
2022/07/25 10:50:51;;;;;;;7.20;6.60;;;;;;;35.65;41.19;95949.91;5052640;27;102586;-66
2022/07/25 10:53:28;;;;;;;6.95;6.45;;;;;;;35.82;39.64;95961.88;5050065;27;105311;-67
2022/07/25 10:56:03;;;;;;;7.20;6.60;;;;;;;35.69;38.77;95953.38;5052460;27;101772;-67
2022/07/25 10:58:46;;;;;;;7.43;6.60;;;;;;;35.63;39.43;95954.31;5052117;27;102386;-65
2022/07/25 11:01:14;;;;;;;7.13;6.55;;;;;;;36.10;39.60;95948.31;5051850;27;102692;-65
2022/07/25 11:03:44;;;;;;;6.95;6.32;;;;;;;35.70;38.13;95959.72;5054179;27;101927;-65
2022/07/25 11:06:13;;;;;;;6.70;6.10;;;;;;;35.16;39.27;95950.72;5051973;27;102687;-66
2022/07/25 11:08:41;;;;;;;5.38;5.07;;;;;;;34.63;34.83;95938.84;5051656;27;101810;-64
2022/07/25 11:11:09;;;;;;;5.93;5.43;;;;;;;35.64;32.85;95940.03;5052076;27;102327;-64
2022/07/25 11:13:40;;;;;;;5.53;5.13;;;;;;;35.40;33.40;95937.69;5050076;27;107160;-64
2022/07/25 11:16:10;;;;;;;6.55;5.97;;;;;;;34.89;33.61;95936.13;5050586;27;101881;-64
2022/07/25 11:18:41;;;;;;;6.15;5.55;;;;;;;35.81;34.46;95930.69;5051899;27;102571;-64